sensor_id;sensor_type;location;lat;lon;timestamp;pressure;altitude;pressure_sealevel;temperature;humidity
78016;BME280;67223;51.102;5.882;2023-04-16T00:00:25;101955.97;;;8.61;83.14
78016;BME280;67223;51.102;5.882;2023-04-16T00:02:52;101959.06;;;8.85;82.44
78016;BME280;67223;51.102;5.882;2023-04-16T00:05:18;101957.78;;;8.60;82.66
78016;BME280;67223;51.102;5.882;2023-04-16T00:07:43;101956.59;;;8.66;83.07
78016;BME280;67223;51.102;5.882;2023-04-16T00:10:08;101957.59;;;8.63;82.87
78016;BME280;67223;51.102;5.882;2023-04-16T00:12:34;101954.16;;;8.77;82.47
78016;BME280;67223;51.102;5.882;2023-04-16T00:15:01;101954.41;;;8.57;83.10
78016;BME280;67223;51.102;5.882;2023-04-16T00:17:27;101952.94;;;8.67;82.69
78016;BME280;67223;51.102;5.882;2023-04-16T00:19:52;101952.97;;;8.83;82.56
78016;BME280;67223;51.102;5.882;2023-04-16T00:22:18;101955.97;;;8.61;82.55
78016;BME280;67223;51.102;5.882;2023-04-16T00:24:43;101948.50;;;8.68;82.58
78016;BME280;67223;51.102;5.882;2023-04-16T00:27:09;101948.16;;;8.58;82.54
78016;BME280;67223;51.102;5.882;2023-04-16T00:29:34;101948.41;;;8.53;82.73
78016;BME280;67223;51.102;5.882;2023-04-16T00:32:00;101958.13;;;8.54;82.76
78016;BME280;67223;51.102;5.882;2023-04-16T00:34:25;101948.47;;;8.52;83.00
78016;BME280;67223;51.102;5.882;2023-04-16T00:36:51;101950.81;;;8.74;82.87
78016;BME280;67223;51.102;5.882;2023-04-16T00:39:16;101953.47;;;8.74;82.44
78016;BME280;67223;51.102;5.882;2023-04-16T00:41:42;101950.81;;;8.58;83.09
78016;BME280;67223;51.102;5.882;2023-04-16T00:44:08;101953.13;;;8.64;82.69
78016;BME280;67223;51.102;5.882;2023-04-16T00:46:34;101955.13;;;8.60;82.71
78016;BME280;67223;51.102;5.882;2023-04-16T00:49:01;101947.75;;;8.66;82.54
78016;BME280;67223;51.102;5.882;2023-04-16T00:51:27;101951.94;;;8.70;82.98
78016;BME280;67223;51.102;5.882;2023-04-16T00:53:52;101953.66;;;8.71;82.78
78016;BME280;67223;51.102;5.882;2023-04-16T00:56:19;101949.34;;;8.68;83.26
78016;BME280;67223;51.102;5.882;2023-04-16T00:58:45;101955.53;;;8.69;82.99
78016;BME280;67223;51.102;5.882;2023-04-16T01:01:10;101953.22;;;8.62;82.95
78016;BME280;67223;51.102;5.882;2023-04-16T01:03:42;101960.34;;;8.46;83.03
78016;BME280;67223;51.102;5.882;2023-04-16T01:06:08;101956.25;;;8.56;82.82
78016;BME280;67223;51.102;5.882;2023-04-16T01:08:33;101960.53;;;8.59;82.76
78016;BME280;67223;51.102;5.882;2023-04-16T01:10:59;101953.81;;;8.52;83.17
78016;BME280;67223;51.102;5.882;2023-04-16T01:13:24;101960.53;;;8.59;82.89
78016;BME280;67223;51.102;5.882;2023-04-16T01:15:50;101955.63;;;8.51;82.93
78016;BME280;67223;51.102;5.882;2023-04-16T01:18:18;101964.38;;;8.53;83.02
78016;BME280;67223;51.102;5.882;2023-04-16T01:20:45;101955.88;;;8.78;83.11
78016;BME280;67223;51.102;5.882;2023-04-16T01:23:11;101952.63;;;8.73;82.93
78016;BME280;67223;51.102;5.882;2023-04-16T01:25:37;101958.53;;;8.62;83.03
78016;BME280;67223;51.102;5.882;2023-04-16T01:28:02;101951.75;;;8.73;83.11
78016;BME280;67223;51.102;5.882;2023-04-16T01:30:28;101964.22;;;8.56;83.45
78016;BME280;67223;51.102;5.882;2023-04-16T01:32:53;101953.81;;;8.52;83.51
78016;BME280;67223;51.102;5.882;2023-04-16T01:35:19;101967.03;;;8.53;83.75
78016;BME280;67223;51.102;5.882;2023-04-16T01:37:44;101960.00;;;8.52;84.09
78016;BME280;67223;51.102;5.882;2023-04-16T01:40:10;101953.47;;;8.58;83.45
78016;BME280;67223;51.102;5.882;2023-04-16T01:42:36;101953.41;;;8.59;83.91
78016;BME280;67223;51.102;5.882;2023-04-16T01:45:05;101958.66;;;8.61;83.49
78016;BME280;67223;51.102;5.882;2023-04-16T01:47:33;101953.56;;;8.56;83.50
78016;BME280;67223;51.102;5.882;2023-04-16T01:49:59;101960.69;;;8.56;83.85
78016;BME280;67223;51.102;5.882;2023-04-16T01:52:25;101958.28;;;8.51;84.05
78016;BME280;67223;51.102;5.882;2023-04-16T01:54:51;101961.09;;;8.48;84.60
78016;BME280;67223;51.102;5.882;2023-04-16T01:57:16;101954.84;;;8.49;84.00
78016;BME280;67223;51.102;5.882;2023-04-16T01:59:41;101960.81;;;8.37;84.43
78016;BME280;67223;51.102;5.882;2023-04-16T02:02:09;101957.09;;;8.24;84.07
78016;BME280;67223;51.102;5.882;2023-04-16T02:04:42;101957.22;;;8.38;84.40
78016;BME280;67223;51.102;5.882;2023-04-16T02:07:08;101958.44;;;8.48;84.39
78016;BME280;67223;51.102;5.882;2023-04-16T02:09:35;101955.09;;;8.45;83.98
78016;BME280;67223;51.102;5.882;2023-04-16T02:12:01;101951.56;;;8.44;84.47
78016;BME280;67223;51.102;5.882;2023-04-16T02:14:30;101951.56;;;8.44;84.51
78016;BME280;67223;51.102;5.882;2023-04-16T02:16:56;101950.78;;;8.42;84.47
78016;BME280;67223;51.102;5.882;2023-04-16T02:19:22;101952.25;;;8.48;84.77
78016;BME280;67223;51.102;5.882;2023-04-16T02:21:50;101947.97;;;8.45;84.34
78016;BME280;67223;51.102;5.882;2023-04-16T02:24:15;101952.69;;;8.40;84.82
78016;BME280;67223;51.102;5.882;2023-04-16T02:26:41;101949.16;;;8.40;84.61
78016;BME280;67223;51.102;5.882;2023-04-16T02:29:06;101952.00;;;8.37;85.40
78016;BME280;67223;51.102;5.882;2023-04-16T02:31:32;101947.88;;;8.31;85.27
78016;BME280;67223;51.102;5.882;2023-04-16T02:33:57;101949.69;;;8.46;84.74
78016;BME280;67223;51.102;5.882;2023-04-16T02:36:23;101949.25;;;8.38;85.41
78016;BME280;67223;51.102;5.882;2023-04-16T02:38:48;101945.91;;;8.17;84.84
78016;BME280;67223;51.102;5.882;2023-04-16T02:41:14;101957.84;;;8.43;85.05
78016;BME280;67223;51.102;5.882;2023-04-16T02:43:39;101951.41;;;8.32;85.26
78016;BME280;67223;51.102;5.882;2023-04-16T02:46:05;101954.56;;;8.38;85.83
78016;BME280;67223;51.102;5.882;2023-04-16T02:48:30;101948.13;;;8.42;85.63
78016;BME280;67223;51.102;5.882;2023-04-16T02:50:56;101962.41;;;8.41;85.82
78016;BME280;67223;51.102;5.882;2023-04-16T02:53:22;101967.63;;;8.43;85.38
78016;BME280;67223;51.102;5.882;2023-04-16T02:55:51;101963.47;;;8.37;85.82
78016;BME280;67223;51.102;5.882;2023-04-16T02:58:18;101963.91;;;8.30;85.80
78016;BME280;67223;51.102;5.882;2023-04-16T03:03:21;101971.00;;;8.46;85.86
78016;BME280;67223;51.102;5.882;2023-04-16T03:05:47;101972.44;;;8.36;85.81
78016;BME280;67223;51.102;5.882;2023-04-16T03:08:12;101971.66;;;8.34;86.07
78016;BME280;67223;51.102;5.882;2023-04-16T03:10:38;101970.78;;;8.34;86.51
78016;BME280;67223;51.102;5.882;2023-04-16T03:13:05;101976.09;;;8.34;86.17
78016;BME280;67223;51.102;5.882;2023-04-16T03:15:31;101974.78;;;8.25;86.60
78016;BME280;67223;51.102;5.882;2023-04-16T03:17:56;101974.91;;;8.39;86.58
78016;BME280;67223;51.102;5.882;2023-04-16T03:20:22;101973.41;;;8.51;86.45
78016;BME280;67223;51.102;5.882;2023-04-16T03:22:48;101980.94;;;8.43;86.52
78016;BME280;67223;51.102;5.882;2023-04-16T03:25:14;101980.16;;;8.41;86.50
78016;BME280;67223;51.102;5.882;2023-04-16T03:27:39;101985.25;;;8.45;86.59
78016;BME280;67223;51.102;5.882;2023-04-16T03:30:06;101977.00;;;8.50;86.24
78016;BME280;67223;51.102;5.882;2023-04-16T03:32:32;101972.63;;;8.49;86.79
78016;BME280;67223;51.102;5.882;2023-04-16T03:34:57;101974.34;;;8.50;86.63
78016;BME280;67223;51.102;5.882;2023-04-16T03:37:23;101976.66;;;8.40;86.99
78016;BME280;67223;51.102;5.882;2023-04-16T03:39:48;101971.81;;;8.47;86.93
78016;BME280;67223;51.102;5.882;2023-04-16T03:42:14;101976.28;;;8.31;86.83
78016;BME280;67223;51.102;5.882;2023-04-16T03:44:39;101976.66;;;8.40;87.40
78016;BME280;67223;51.102;5.882;2023-04-16T03:47:05;101977.44;;;8.25;87.17
78016;BME280;67223;51.102;5.882;2023-04-16T03:49:30;101978.25;;;8.43;86.99
78016;BME280;67223;51.102;5.882;2023-04-16T03:51:56;101978.50;;;8.38;87.28
78016;BME280;67223;51.102;5.882;2023-04-16T03:54:21;101976.31;;;8.46;87.15
78016;BME280;67223;51.102;5.882;2023-04-16T03:56:46;101985.38;;;8.42;87.16
78016;BME280;67223;51.102;5.882;2023-04-16T03:59:12;101980.25;;;8.39;87.29
78016;BME280;67223;51.102;5.882;2023-04-16T04:01:37;101983.88;;;8.54;87.28
78016;BME280;67223;51.102;5.882;2023-04-16T04:04:03;101976.50;;;8.26;87.63
78016;BME280;67223;51.102;5.882;2023-04-16T04:06:28;101977.16;;;8.47;87.34
78016;BME280;67223;51.102;5.882;2023-04-16T04:08:55;101974.31;;;8.34;87.71
78016;BME280;67223;51.102;5.882;2023-04-16T04:11:20;101976.78;;;8.37;88.12
78016;BME280;67223;51.102;5.882;2023-04-16T04:13:45;101974.78;;;8.25;87.49
78016;BME280;67223;51.102;5.882;2023-04-16T04:16:11;101984.38;;;8.45;88.01
78016;BME280;67223;51.102;5.882;2023-04-16T04:18:36;101976.13;;;8.49;88.13
78016;BME280;67223;51.102;5.882;2023-04-16T04:21:08;101980.53;;;8.50;87.55
78016;BME280;67223;51.102;5.882;2023-04-16T04:23:36;101977.06;;;8.48;87.85
78016;BME280;67223;51.102;5.882;2023-04-16T04:26:02;101976.13;;;8.49;87.90
78016;BME280;67223;51.102;5.882;2023-04-16T04:28:30;101977.88;;;8.50;87.70
78016;BME280;67223;51.102;5.882;2023-04-16T04:30:56;101984.31;;;8.46;87.69
78016;BME280;67223;51.102;5.882;2023-04-16T04:33:23;101987.78;;;8.47;87.78
78016;BME280;67223;51.102;5.882;2023-04-16T04:35:48;101989.63;;;8.46;88.35
78016;BME280;67223;51.102;5.882;2023-04-16T04:38:14;101988.59;;;8.49;88.21
78016;BME280;67223;51.102;5.882;2023-04-16T04:40:44;101991.59;;;8.58;88.03
78016;BME280;67223;51.102;5.882;2023-04-16T04:43:09;101988.84;;;8.44;88.32
78016;BME280;67223;51.102;5.882;2023-04-16T04:45:35;101996.22;;;8.39;88.33
78016;BME280;67223;51.102;5.882;2023-04-16T04:48:00;101996.91;;;8.43;88.68
78016;BME280;67223;51.102;5.882;2023-04-16T04:50:26;101992.75;;;8.37;89.06
78016;BME280;67223;51.102;5.882;2023-04-16T04:52:52;101997.88;;;8.42;88.85
78016;BME280;67223;51.102;5.882;2023-04-16T04:55:17;102005.59;;;8.46;88.66
78016;BME280;67223;51.102;5.882;2023-04-16T04:57:43;102008.34;;;8.45;88.64
78016;BME280;67223;51.102;5.882;2023-04-16T05:00:09;102009.44;;;8.41;88.46
78016;BME280;67223;51.102;5.882;2023-04-16T05:02:34;102001.00;;;8.33;88.91
78016;BME280;67223;51.102;5.882;2023-04-16T05:05:00;102004.31;;;8.53;88.66
78016;BME280;67223;51.102;5.882;2023-04-16T05:07:25;102012.72;;;8.46;89.23
78016;BME280;67223;51.102;5.882;2023-04-16T05:09:51;102009.03;;;8.48;88.50
78016;BME280;67223;51.102;5.882;2023-04-16T05:12:16;102012.53;;;8.49;88.97
78016;BME280;67223;51.102;5.882;2023-04-16T05:14:42;102001.09;;;8.47;88.54
78016;BME280;67223;51.102;5.882;2023-04-16T05:17:08;102005.31;;;8.35;89.05
78016;BME280;67223;51.102;5.882;2023-04-16T05:19:35;102017.28;;;8.59;89.17
78016;BME280;67223;51.102;5.882;2023-04-16T05:22:01;102014.66;;;8.42;89.28
78016;BME280;67223;51.102;5.882;2023-04-16T05:24:27;102025.00;;;8.48;88.67
78016;BME280;67223;51.102;5.882;2023-04-16T05:26:53;102015.53;;;8.43;88.76
78016;BME280;67223;51.102;5.882;2023-04-16T05:29:18;102020.78;;;8.44;88.72
78016;BME280;67223;51.102;5.882;2023-04-16T05:31:44;102019.84;;;8.45;89.04
78016;BME280;67223;51.102;5.882;2023-04-16T05:34:09;102024.00;;;8.51;89.00
78016;BME280;67223;51.102;5.882;2023-04-16T05:36:35;102026.97;;;8.45;89.22
78016;BME280;67223;51.102;5.882;2023-04-16T05:39:01;102025.50;;;8.39;89.07
78016;BME280;67223;51.102;5.882;2023-04-16T05:41:27;102020.00;;;8.42;88.97
78016;BME280;67223;51.102;5.882;2023-04-16T05:43:52;102034.09;;;8.44;89.17
78016;BME280;67223;51.102;5.882;2023-04-16T05:46:17;102030.31;;;8.48;89.35
78016;BME280;67223;51.102;5.882;2023-04-16T05:48:43;102032.03;;;8.49;89.48
78016;BME280;67223;51.102;5.882;2023-04-16T05:51:08;102040.03;;;8.49;89.55
78016;BME280;67223;51.102;5.882;2023-04-16T05:53:34;102039.84;;;8.52;89.12
78016;BME280;67223;51.102;5.882;2023-04-16T05:55:59;102038.84;;;8.55;89.31
78016;BME280;67223;51.102;5.882;2023-04-16T05:58:25;102041.75;;;8.50;89.47
78016;BME280;67223;51.102;5.882;2023-04-16T06:00:50;102037.38;;;8.49;89.26
78016;BME280;67223;51.102;5.882;2023-04-16T06:03:16;102042.63;;;8.51;89.68
78016;BME280;67223;51.102;5.882;2023-04-16T06:05:41;102043.31;;;8.54;89.74
78016;BME280;67223;51.102;5.882;2023-04-16T06:08:07;102042.25;;;8.41;89.44
78016;BME280;67223;51.102;5.882;2023-04-16T06:10:32;102046.28;;;8.48;89.80
78016;BME280;67223;51.102;5.882;2023-04-16T06:12:58;102045.34;;;8.49;89.43
78016;BME280;67223;51.102;5.882;2023-04-16T06:15:23;102052.56;;;8.47;89.46
78016;BME280;67223;51.102;5.882;2023-04-16T06:17:49;102052.47;;;8.49;89.53
78016;BME280;67223;51.102;5.882;2023-04-16T06:20:15;102055.06;;;8.50;90.13
78016;BME280;67223;51.102;5.882;2023-04-16T06:22:41;102054.13;;;8.51;90.21
78016;BME280;67223;51.102;5.882;2023-04-16T06:25:08;102055.81;;;8.52;89.96
78016;BME280;67223;51.102;5.882;2023-04-16T06:27:34;102057.31;;;8.58;89.88
78016;BME280;67223;51.102;5.882;2023-04-16T06:29:59;102069.38;;;8.65;90.10
78016;BME280;67223;51.102;5.882;2023-04-16T06:32:25;102056.38;;;8.59;89.70
78016;BME280;67223;51.102;5.882;2023-04-16T06:34:51;102069.50;;;8.62;90.11
78016;BME280;67223;51.102;5.882;2023-04-16T06:37:16;102066.34;;;8.55;89.48
78016;BME280;67223;51.102;5.882;2023-04-16T06:39:42;102077.63;;;8.43;89.80
78016;BME280;67223;51.102;5.882;2023-04-16T06:42:07;102069.13;;;8.70;89.79
78016;BME280;67223;51.102;5.882;2023-04-16T06:44:34;102071.84;;;8.68;90.19
78016;BME280;67223;51.102;5.882;2023-04-16T06:47:00;102069.91;;;8.72;89.57
78016;BME280;67223;51.102;5.882;2023-04-16T06:49:25;102078.91;;;8.69;89.95
78016;BME280;67223;51.102;5.882;2023-04-16T06:51:51;102078.03;;;8.69;89.91
78016;BME280;67223;51.102;5.882;2023-04-16T06:54:16;102076.78;;;8.76;89.72
78016;BME280;67223;51.102;5.882;2023-04-16T06:56:42;102078.25;;;8.81;89.56
78016;BME280;67223;51.102;5.882;2023-04-16T06:59:08;102077.72;;;8.75;90.09
78016;BME280;67223;51.102;5.882;2023-04-16T07:01:33;102079.44;;;8.76;89.72
78016;BME280;67223;51.102;5.882;2023-04-16T07:03:59;102078.97;;;8.68;89.51
78016;BME280;67223;51.102;5.882;2023-04-16T07:06:25;102084.50;;;8.80;89.73
78016;BME280;67223;51.102;5.882;2023-04-16T07:08:51;102080.19;;;8.78;89.72
78016;BME280;67223;51.102;5.882;2023-04-16T07:11:17;102090.34;;;8.71;89.63
78016;BME280;67223;51.102;5.882;2023-04-16T07:13:43;102086.31;;;8.80;89.93
78016;BME280;67223;51.102;5.882;2023-04-16T07:16:08;102094.13;;;8.83;89.98
78016;BME280;67223;51.102;5.882;2023-04-16T07:18:34;102104.09;;;8.79;89.97
78016;BME280;67223;51.102;5.882;2023-04-16T07:20:59;102106.63;;;8.65;89.84
78016;BME280;67223;51.102;5.882;2023-04-16T07:23:24;102099.97;;;8.74;89.94
78016;BME280;67223;51.102;5.882;2023-04-16T07:25:50;102114.69;;;8.81;89.91
78016;BME280;67223;51.102;5.882;2023-04-16T07:28:16;102109.34;;;8.81;90.11
78016;BME280;67223;51.102;5.882;2023-04-16T07:30:42;102123.44;;;8.83;89.87
78016;BME280;67223;51.102;5.882;2023-04-16T07:33:08;102112.53;;;8.87;89.69
78016;BME280;67223;51.102;5.882;2023-04-16T07:35:33;102109.16;;;8.84;89.89
78016;BME280;67223;51.102;5.882;2023-04-16T07:37:59;102116.22;;;8.85;90.27
78016;BME280;67223;51.102;5.882;2023-04-16T07:40:25;102120.88;;;8.81;90.23
78016;BME280;67223;51.102;5.882;2023-04-16T07:42:51;102124.47;;;8.80;89.98
78016;BME280;67223;51.102;5.882;2023-04-16T07:45:17;102120.19;;;8.93;90.65
78016;BME280;67223;51.102;5.882;2023-04-16T07:47:43;102119.50;;;8.90;90.22
78016;BME280;67223;51.102;5.882;2023-04-16T07:50:10;102126.81;;;9.02;90.31
78016;BME280;67223;51.102;5.882;2023-04-16T07:52:36;102137.63;;;9.16;90.20
78016;BME280;67223;51.102;5.882;2023-04-16T07:55:08;102137.94;;;9.10;90.25
78016;BME280;67223;51.102;5.882;2023-04-16T07:57:34;102137.59;;;9.00;89.47
78016;BME280;67223;51.102;5.882;2023-04-16T08:00:00;102138.00;;;9.08;90.14
78016;BME280;67223;51.102;5.882;2023-04-16T08:02:34;102141.50;;;8.93;90.14
78016;BME280;67223;51.102;5.882;2023-04-16T08:04:59;102138.81;;;9.11;90.17
78016;BME280;67223;51.102;5.882;2023-04-16T08:07:25;102150.66;;;9.05;89.84
78016;BME280;67223;51.102;5.882;2023-04-16T08:09:51;102152.72;;;9.00;90.26
78016;BME280;67223;51.102;5.882;2023-04-16T08:12:17;102150.66;;;9.05;90.20
78016;BME280;67223;51.102;5.882;2023-04-16T08:14:44;102157.34;;;9.12;90.42
78016;BME280;67223;51.102;5.882;2023-04-16T08:17:16;102158.66;;;9.05;90.72
78016;BME280;67223;51.102;5.882;2023-04-16T08:19:43;102161.31;;;9.05;90.01
78016;BME280;67223;51.102;5.882;2023-04-16T08:22:12;102170.06;;;9.07;90.53
78016;BME280;67223;51.102;5.882;2023-04-16T08:24:37;102175.38;;;9.07;90.48
78016;BME280;67223;51.102;5.882;2023-04-16T08:27:03;102170.06;;;9.07;90.61
78016;BME280;67223;51.102;5.882;2023-04-16T08:29:29;102173.09;;;9.17;90.46
78016;BME280;67223;51.102;5.882;2023-04-16T08:31:58;102168.56;;;9.19;90.22
78016;BME280;67223;51.102;5.882;2023-04-16T08:34:24;102184.19;;;9.09;90.74
78016;BME280;67223;51.102;5.882;2023-04-16T08:36:50;102179.78;;;9.08;90.00
78016;BME280;67223;51.102;5.882;2023-04-16T08:39:16;102174.75;;;9.19;90.23
78016;BME280;67223;51.102;5.882;2023-04-16T08:41:43;102175.59;;;9.20;90.46
78016;BME280;67223;51.102;5.882;2023-04-16T08:44:20;102188.88;;;9.21;90.15
78016;BME280;67223;51.102;5.882;2023-04-16T08:46:48;102181.13;;;9.32;90.20
78016;BME280;67223;51.102;5.882;2023-04-16T08:49:16;102187.03;;;9.22;90.22
78016;BME280;67223;51.102;5.882;2023-04-16T08:51:49;102178.03;;;9.24;90.53
78016;BME280;67223;51.102;5.882;2023-04-16T08:54:25;102184.91;;;9.28;90.36
78016;BME280;67223;51.102;5.882;2023-04-16T08:56:57;102188.34;;;9.30;90.22
78016;BME280;67223;51.102;5.882;2023-04-16T08:59:24;102187.63;;;9.27;90.32
78016;BME280;67223;51.102;5.882;2023-04-16T09:01:49;102192.66;;;9.33;90.32
78016;BME280;67223;51.102;5.882;2023-04-16T09:04:16;102190.22;;;9.28;90.22
78016;BME280;67223;51.102;5.882;2023-04-16T09:06:44;102195.88;;;9.22;90.69
78016;BME280;67223;51.102;5.882;2023-04-16T09:09:11;102203.56;;;9.28;90.54
78016;BME280;67223;51.102;5.882;2023-04-16T09:11:37;102201.69;;;9.30;90.77
78016;BME280;67223;51.102;5.882;2023-04-16T09:14:04;102197.66;;;9.39;90.64
78016;BME280;67223;51.102;5.882;2023-04-16T09:16:34;102194.13;;;9.38;90.28
78016;BME280;67223;51.102;5.882;2023-04-16T09:19:00;102192.13;;;9.42;90.36
78016;BME280;67223;51.102;5.882;2023-04-16T09:21:25;102197.47;;;9.42;90.73
78016;BME280;67223;51.102;5.882;2023-04-16T09:23:52;102194.03;;;9.40;90.37
78016;BME280;67223;51.102;5.882;2023-04-16T09:26:19;102206.00;;;9.48;90.53
78016;BME280;67223;51.102;5.882;2023-04-16T09:28:47;102196.59;;;9.41;90.33
78016;BME280;67223;51.102;5.882;2023-04-16T09:31:16;102206.59;;;9.54;90.67
78016;BME280;67223;51.102;5.882;2023-04-16T09:33:59;102211.44;;;9.63;90.09
78016;BME280;67223;51.102;5.882;2023-04-16T09:36:27;102214.03;;;9.64;90.28
78016;BME280;67223;51.102;5.882;2023-04-16T09:38:53;102211.09;;;9.69;90.27
78016;BME280;67223;51.102;5.882;2023-04-16T09:41:24;102217.03;;;9.74;90.18
78016;BME280;67223;51.102;5.882;2023-04-16T09:43:55;102219.09;;;9.69;90.25
78016;BME280;67223;51.102;5.882;2023-04-16T09:46:24;102225.56;;;9.65;90.09
78016;BME280;67223;51.102;5.882;2023-04-16T09:48:54;102227.75;;;9.57;89.96
78016;BME280;67223;51.102;5.882;2023-04-16T09:51:19;102227.19;;;9.67;90.44
78016;BME280;67223;51.102;5.882;2023-04-16T09:53:45;102229.22;;;9.62;90.02
78016;BME280;67223;51.102;5.882;2023-04-16T09:56:11;102220.91;;;9.68;89.67
78016;BME280;67223;51.102;5.882;2023-04-16T09:58:37;102227.78;;;9.72;89.49
78016;BME280;67223;51.102;5.882;2023-04-16T10:01:10;102226.09;;;9.71;90.01
78016;BME280;67223;51.102;5.882;2023-04-16T10:03:37;102223.31;;;9.88;89.61
78016;BME280;67223;51.102;5.882;2023-04-16T10:06:14;102228.31;;;10.10;89.56
78016;BME280;67223;51.102;5.882;2023-04-16T10:08:58;102234.25;;;10.15;89.15
78016;BME280;67223;51.102;5.882;2023-04-16T10:11:24;102238.53;;;10.33;89.00
78016;BME280;67223;51.102;5.882;2023-04-16T10:13:50;102239.84;;;10.26;88.57
78016;BME280;67223;51.102;5.882;2023-04-16T10:16:16;102235.97;;;10.16;88.46
78016;BME280;67223;51.102;5.882;2023-04-16T10:18:43;102243.78;;;10.04;88.01
78016;BME280;67223;51.102;5.882;2023-04-16T10:21:10;102236.91;;;10.15;88.00
78016;BME280;67223;51.102;5.882;2023-04-16T10:23:41;102239.50;;;10.01;87.77
78016;BME280;67223;51.102;5.882;2023-04-16T10:26:07;102241.31;;;10.01;87.46
78016;BME280;67223;51.102;5.882;2023-04-16T10:28:33;102241.66;;;9.94;87.57
78016;BME280;67223;51.102;5.882;2023-04-16T10:31:07;102251.53;;;10.08;87.62
78016;BME280;67223;51.102;5.882;2023-04-16T10:33:39;102242.09;;;10.18;87.50
78016;BME280;67223;51.102;5.882;2023-04-16T10:36:13;102235.91;;;10.48;87.67
78016;BME280;67223;51.102;5.882;2023-04-16T10:38:40;102244.44;;;10.54;87.29
78016;BME280;67223;51.102;5.882;2023-04-16T10:41:06;102238.78;;;10.74;87.13
78016;BME280;67223;51.102;5.882;2023-04-16T10:43:38;102231.47;;;10.92;86.62
78016;BME280;67223;51.102;5.882;2023-04-16T10:46:30;102231.69;;;11.17;86.13
78016;BME280;67223;51.102;5.882;2023-04-16T10:49:00;102232.53;;;11.46;86.38
78016;BME280;67223;51.102;5.882;2023-04-16T10:51:31;102232.47;;;11.34;85.73
78016;BME280;67223;51.102;5.882;2023-04-16T10:56:31;102236.94;;;11.33;84.00
78016;BME280;67223;51.102;5.882;2023-04-16T10:58:57;102231.66;;;11.46;84.35
78016;BME280;67223;51.102;5.882;2023-04-16T11:01:31;102230.66;;;11.34;83.47
78016;BME280;67223;51.102;5.882;2023-04-16T11:04:25;102236.28;;;11.44;83.39
78016;BME280;67223;51.102;5.882;2023-04-16T11:09:59;102232.25;;;11.08;82.35
78016;BME280;67223;51.102;5.882;2023-04-16T11:13:02;102229.41;;;11.40;82.25
78016;BME280;67223;51.102;5.882;2023-04-16T11:15:33;102229.00;;;11.46;83.17
78016;BME280;67223;51.102;5.882;2023-04-16T11:17:59;102226.91;;;11.51;82.33
78016;BME280;67223;51.102;5.882;2023-04-16T11:20:26;102221.00;;;11.60;82.49
78016;BME280;67223;51.102;5.882;2023-04-16T11:22:54;102222.00;;;11.72;81.36
78016;BME280;67223;51.102;5.882;2023-04-16T11:25:27;102220.78;;;11.77;80.30
78016;BME280;67223;51.102;5.882;2023-04-16T11:27:58;102226.97;;;11.92;80.34
78016;BME280;67223;51.102;5.882;2023-04-16T11:30:31;102222.88;;;12.13;79.57
78016;BME280;67223;51.102;5.882;2023-04-16T11:33:03;102220.25;;;12.26;78.95
78016;BME280;67223;51.102;5.882;2023-04-16T11:35:29;102222.25;;;12.49;79.14
78016;BME280;67223;51.102;5.882;2023-04-16T11:37:55;102219.69;;;12.47;78.53
78016;BME280;67223;51.102;5.882;2023-04-16T11:40:21;102233.34;;;12.70;77.17
78016;BME280;67223;51.102;5.882;2023-04-16T11:42:47;102225.53;;;12.92;76.97
78016;BME280;67223;51.102;5.882;2023-04-16T11:45:13;102233.81;;;12.89;75.19
78016;BME280;67223;51.102;5.882;2023-04-16T11:47:49;102220.00;;;13.20;74.80
78016;BME280;67223;51.102;5.882;2023-04-16T11:50:24;102229.66;;;13.23;74.80
78016;BME280;67223;51.102;5.882;2023-04-16T11:52:51;102222.38;;;13.12;75.48
78016;BME280;67223;51.102;5.882;2023-04-16T11:55:18;102225.09;;;12.85;74.82
78016;BME280;67223;51.102;5.882;2023-04-16T11:57:43;102231.63;;;12.69;76.03
78016;BME280;67223;51.102;5.882;2023-04-16T12:00:10;102234.28;;;12.56;75.94
78016;BME280;67223;51.102;5.882;2023-04-16T12:02:44;102234.44;;;12.40;76.51
78016;BME280;67223;51.102;5.882;2023-04-16T12:05:35;102230.78;;;12.29;76.95
78016;BME280;67223;51.102;5.882;2023-04-16T12:08:10;102234.56;;;12.12;76.51
78016;BME280;67223;51.102;5.882;2023-04-16T12:10:52;102231.72;;;12.28;77.66
78016;BME280;67223;51.102;5.882;2023-04-16T12:13:17;102229.94;;;12.41;76.99
78016;BME280;67223;51.102;5.882;2023-04-16T12:15:48;102237.53;;;12.74;77.20
78016;BME280;67223;51.102;5.882;2023-04-16T12:18:15;102237.88;;;12.82;75.94
78016;BME280;67223;51.102;5.882;2023-04-16T12:20:42;102244.63;;;12.87;76.49
78016;BME280;67223;51.102;5.882;2023-04-16T12:23:08;102242.63;;;12.51;75.81
78016;BME280;67223;51.102;5.882;2023-04-16T12:25:33;102242.28;;;12.43;75.63
78016;BME280;67223;51.102;5.882;2023-04-16T12:27:59;102247.13;;;12.51;78.64
78016;BME280;67223;51.102;5.882;2023-04-16T12:30:25;102241.34;;;12.44;78.08
78016;BME280;67223;51.102;5.882;2023-04-16T12:33:17;102245.16;;;12.40;77.53
78016;BME280;67223;51.102;5.882;2023-04-16T12:35:43;102241.13;;;12.47;76.92
78016;BME280;67223;51.102;5.882;2023-04-16T12:38:09;102244.00;;;12.84;77.33
78016;BME280;67223;51.102;5.882;2023-04-16T12:40:36;102249.78;;;12.90;76.75
78016;BME280;67223;51.102;5.882;2023-04-16T12:43:02;102246.88;;;12.81;76.48
78016;BME280;67223;51.102;5.882;2023-04-16T12:45:27;102251.44;;;12.66;76.64
78016;BME280;67223;51.102;5.882;2023-04-16T12:47:53;102250.25;;;12.58;76.25
78016;BME280;67223;51.102;5.882;2023-04-16T12:50:18;102254.41;;;12.49;76.93
78016;BME280;67223;51.102;5.882;2023-04-16T12:52:44;102245.97;;;12.28;77.12
78016;BME280;67223;51.102;5.882;2023-04-16T12:55:09;102248.66;;;12.55;78.84
78016;BME280;67223;51.102;5.882;2023-04-16T12:57:35;102249.13;;;12.35;76.69
78016;BME280;67223;51.102;5.882;2023-04-16T13:00:01;102251.53;;;12.52;76.81
78016;BME280;67223;51.102;5.882;2023-04-16T13:02:26;102258.75;;;12.37;76.68
78016;BME280;67223;51.102;5.882;2023-04-16T13:04:53;102251.38;;;12.41;75.27